Time;durP1;ratioP1;P1;durP2;ratioP2;P2;SDS_P1;SDS_P2;PMS_P1;PMS_P2;Temp;Humidity;BMP_temperature;BMP_pressure;BME280_temperature;BME280_humidity;BME280_pressure;Samples;Min_cycle;Max_cycle;Signal;HPM_P1;HPM_P2
2022/08/21 00:00:58;;;;;;;4.72;2.35;;;20.40;91.90;;;;;;5111859;27;20210;-43
2022/08/21 00:03:25;;;;;;;4.43;2.58;;;20.30;91.80;;;;;;5115623;27;20212;-45
2022/08/21 00:05:53;;;;;;;3.45;2.42;;;20.30;91.90;;;;;;5125817;27;20263;-46
2022/08/21 00:08:20;;;;;;;6.13;2.63;;;20.20;91.90;;;;;;5131545;27;20205;-45
2022/08/21 00:10:49;;;;;;;5.30;2.30;;;20.30;91.80;;;;;;5110258;27;20233;-46
2022/08/21 00:13:17;;;;;;;3.53;2.13;;;20.20;91.80;;;;;;5115488;27;20238;-46
2022/08/21 00:15:48;;;;;;;4.53;2.20;;;20.20;91.80;;;;;;5110956;27;20210;-43
2022/08/21 00:18:16;;;;;;;5.72;2.58;;;20.10;91.80;;;;;;5094935;27;20737;-42
2022/08/21 00:20:45;;;;;;;6.07;3.15;;;20.10;91.80;;;;;;5122686;27;20274;-42
2022/08/21 00:23:16;;;;;;;3.08;2.28;;;20.10;91.90;;;;;;5131475;27;20683;-43
2022/08/21 00:25:44;;;;;;;9.48;2.70;;;20.00;91.80;;;;;;5092361;27;20275;-42
2022/08/21 00:28:12;;;;;;;5.85;2.30;;;20.00;91.90;;;;;;5127439;27;20233;-42
2022/08/21 00:30:40;;;;;;;3.30;2.30;;;20.00;91.80;;;;;;5092857;28;20222;-42
2022/08/21 00:33:08;;;;;;;3.97;2.22;;;20.00;91.90;;;;;;5109036;27;20296;-42
2022/08/21 00:35:39;;;;;;;7.55;2.20;;;19.90;91.90;;;;;;5108866;27;20194;-43
2022/08/21 00:38:08;;;;;;;6.25;2.70;;;19.90;92.00;;;;;;5088752;28;20216;-43
2022/08/21 00:40:58;;;;;;;5.90;2.50;;;19.80;91.90;;;;;;5114371;27;20242;-42
2022/08/21 00:43:39;;;;;;;5.90;2.53;;;19.80;92.10;;;;;;5127068;27;20209;-42
2022/08/21 00:46:09;;;;;;;4.45;2.35;;;19.80;92.00;;;;;;5091574;28;20198;-43
2022/08/21 00:48:36;;;;;;;9.15;3.10;;;19.70;92.10;;;;;;5109680;27;20689;-43
2022/08/21 00:51:09;;;;;;;5.95;2.75;;;19.60;92.00;;;;;;5112099;27;20210;-42
2022/08/21 00:53:40;;;;;;;6.72;2.40;;;19.60;92.00;;;;;;5110657;27;20695;-43
2022/08/21 00:56:10;;;;;;;5.50;2.63;;;19.60;92.00;;;;;;5107664;27;20218;-43
2022/08/21 00:58:43;;;;;;;3.75;2.45;;;19.60;92.10;;;;;;5111201;27;20243;-43
2022/08/21 01:01:12;;;;;;;6.18;2.15;;;19.60;92.10;;;;;;5116718;27;20744;-43
2022/08/21 01:03:40;;;;;;;6.70;2.92;;;19.50;92.00;;;;;;5115387;27;20194;-42
2022/08/21 01:06:14;;;;;;;7.75;2.63;;;19.50;92.10;;;;;;5118212;27;20205;-42
2022/08/21 01:08:44;;;;;;;4.53;2.08;;;19.50;92.10;;;;;;5093717;27;20304;-44
2022/08/21 01:11:15;;;;;;;5.50;2.58;;;19.50;92.40;;;;;;5118392;27;20676;-42
2022/08/21 01:13:46;;;;;;;5.90;2.55;;;19.50;92.10;;;;;;5107921;27;20210;-44
2022/08/21 01:16:17;;;;;;;7.07;2.75;;;19.50;92.10;;;;;;5106543;27;20972;-43
2022/08/21 01:18:46;;;;;;;4.32;2.40;;;19.50;92.20;;;;;;5111491;27;20197;-42
2022/08/21 01:21:21;;;;;;;5.53;2.55;;;19.40;92.10;;;;;;5108538;28;20198;-43
2022/08/21 01:23:57;;;;;;;4.65;2.72;;;19.40;92.20;;;;;;5094051;27;20558;-43
2022/08/21 01:26:28;;;;;;;5.45;2.63;;;19.30;92.20;;;;;;5111369;27;20297;-42
2022/08/21 01:29:09;;;;;;;5.20;2.42;;;19.30;92.20;;;;;;5118713;27;20290;-42
2022/08/21 01:31:39;;;;;;;5.03;2.70;;;19.30;92.20;;;;;;5115351;27;20213;-42
2022/08/21 01:34:08;;;;;;;5.07;2.80;;;19.20;92.20;;;;;;5110572;27;20190;-43
2022/08/21 01:36:38;;;;;;;5.60;2.60;;;19.20;92.20;;;;;;5107130;28;20202;-43
2022/08/21 01:39:05;;;;;;;4.20;2.30;;;19.10;92.20;;;;;;5088200;28;20245;-43
2022/08/21 01:41:35;;;;;;;4.97;2.28;;;19.10;92.20;;;;;;5107732;28;20214;-43
2022/08/21 01:44:05;;;;;;;5.95;2.63;;;19.10;92.30;;;;;;5096432;28;20202;-43
2022/08/21 01:46:37;;;;;;;4.43;2.40;;;19.10;92.20;;;;;;5109452;28;20194;-42
2022/08/21 01:49:05;;;;;;;4.85;2.22;;;19.10;92.30;;;;;;5109312;28;20234;-44
2022/08/21 01:51:32;;;;;;;4.82;2.20;;;19.00;92.30;;;;;;5122369;28;20201;-47
2022/08/21 01:53:59;;;;;;;6.43;2.30;;;19.00;92.30;;;;;;5120736;28;20222;-48
2022/08/21 01:56:43;;;;;;;3.27;2.00;;;19.00;92.30;;;;;;5119410;28;20197;-42
2022/08/21 01:59:13;;;;;;;4.77;2.53;;;19.00;92.50;;;;;;5113703;28;20249;-43
2022/08/21 02:01:41;;;;;;;4.90;2.60;;;19.00;92.70;;;;;;5120725;28;20561;-43
2022/08/21 02:04:10;;;;;;;4.57;2.42;;;18.90;92.40;;;;;;5114156;28;20197;-42
2022/08/21 02:06:38;;;;;;;5.57;2.50;;;18.90;92.40;;;;;;5101053;28;20218;-42
2022/08/21 02:09:07;;;;;;;5.00;2.58;;;18.90;92.40;;;;;;5120417;28;20292;-43
2022/08/21 02:11:36;;;;;;;5.60;2.70;;;18.80;92.40;;;;;;5127184;28;20206;-42
2022/08/21 02:14:03;;;;;;;4.45;2.63;;;18.80;92.50;;;;;;5126420;27;20216;-44
2022/08/21 02:16:33;;;;;;;5.40;2.88;;;18.80;92.50;;;;;;5097052;28;20206;-44
2022/08/21 02:19:06;;;;;;;6.07;2.47;;;18.80;92.50;;;;;;5113716;28;20198;-43
2022/08/21 02:21:33;;;;;;;6.57;2.80;;;18.80;92.60;;;;;;5106864;28;20217;-42
2022/08/21 02:24:03;;;;;;;8.23;2.67;;;18.70;92.50;;;;;;5112184;28;20194;-43
2022/08/21 02:26:30;;;;;;;8.05;2.83;;;18.70;92.60;;;;;;5116397;28;20241;-43
2022/08/21 02:29:00;;;;;;;4.20;2.40;;;18.70;92.60;;;;;;5125708;28;20285;-43
2022/08/21 02:31:28;;;;;;;4.60;2.63;;;18.60;92.40;;;;;;5127063;28;20229;-44
2022/08/21 02:33:59;;;;;;;6.05;2.55;;;18.60;92.50;;;;;;5108933;28;20209;-43
2022/08/21 02:36:26;;;;;;;4.90;2.60;;;18.60;92.70;;;;;;5093563;28;20297;-42
2022/08/21 02:38:59;;;;;;;4.88;2.20;;;18.50;92.60;;;;;;5075335;28;20206;-43
2022/08/21 02:41:31;;;;;;;5.60;3.00;;;18.50;92.60;;;;;;5120972;28;20808;-42
2022/08/21 02:43:58;;;;;;;6.05;2.70;;;18.50;92.50;;;;;;5125787;28;20202;-45
2022/08/21 02:46:28;;;;;;;5.00;2.80;;;18.50;92.50;;;;;;5125742;28;20697;-47
2022/08/21 02:48:57;;;;;;;7.05;2.60;;;18.50;92.60;;;;;;5115145;28;20252;-46
2022/08/21 02:51:25;;;;;;;5.10;2.47;;;18.40;92.50;;;;;;5121778;27;20292;-45
2022/08/21 02:53:57;;;;;;;5.63;2.92;;;18.40;92.60;;;;;;5096319;27;20281;-45
2022/08/21 02:56:24;;;;;;;5.75;2.72;;;18.40;92.60;;;;;;5129214;27;20574;-45
2022/08/21 02:58:59;;;;;;;4.75;2.55;;;18.40;92.60;;;;;;5129081;27;20253;-45
2022/08/21 03:01:31;;;;;;;5.50;2.33;;;18.40;92.60;;;;;;5129626;27;20224;-46
2022/08/21 03:04:01;;;;;;;5.93;2.60;;;18.30;92.50;;;;;;5101368;27;20202;-43
2022/08/21 03:06:29;;;;;;;4.40;2.28;;;18.30;92.50;;;;;;5124710;27;20267;-43
2022/08/21 03:08:58;;;;;;;4.50;2.20;;;18.30;92.60;;;;;;5118155;27;20201;-43
2022/08/21 03:11:26;;;;;;;4.80;2.40;;;18.30;92.60;;;;;;5097657;27;20224;-42
2022/08/21 03:13:53;;;;;;;3.72;2.20;;;18.20;92.50;;;;;;5120271;27;20202;-43
2022/08/21 03:16:21;;;;;;;4.65;2.17;;;18.20;92.50;;;;;;5136493;27;20262;-43
2022/08/21 03:18:50;;;;;;;6.22;2.20;;;18.20;92.60;;;;;;5120568;27;20599;-43
2022/08/21 03:21:22;;;;;;;8.93;2.53;;;18.20;92.70;;;;;;5122145;27;20205;-43
2022/08/21 03:23:54;;;;;;;6.85;2.97;;;18.10;92.60;;;;;;5124051;27;20241;-42
2022/08/21 03:26:26;;;;;;;4.78;2.25;;;18.10;92.60;;;;;;5092329;28;20225;-41
2022/08/21 03:28:57;;;;;;;5.82;2.60;;;18.10;92.70;;;;;;5100930;27;20205;-41
2022/08/21 03:31:28;;;;;;;4.68;2.47;;;18.00;92.70;;;;;;5127879;27;20221;-42
2022/08/21 03:33:58;;;;;;;4.47;2.60;;;18.00;92.70;;;;;;5123018;27;20242;-44
2022/08/21 03:36:26;;;;;;;7.18;2.13;;;18.00;92.60;;;;;;5091082;28;20222;-43
2022/08/21 03:38:55;;;;;;;6.57;2.72;;;18.00;92.70;;;;;;5112352;27;20199;-43
2022/08/21 03:41:25;;;;;;;4.15;2.55;;;17.90;92.60;;;;;;5116381;27;20230;-42
2022/08/21 03:43:59;;;;;;;4.05;2.20;;;17.90;92.70;;;;;;5108675;27;20219;-42
2022/08/21 03:46:29;;;;;;;5.05;2.25;;;17.90;92.60;;;;;;5123479;27;20258;-44
2022/08/21 03:48:56;;;;;;;4.45;2.50;;;17.90;92.70;;;;;;5113254;27;20587;-43
2022/08/21 03:51:25;;;;;;;5.30;2.53;;;17.90;92.60;;;;;;5111278;27;20230;-42
2022/08/21 03:53:53;;;;;;;3.53;1.90;;;17.80;92.50;;;;;;5101710;27;20280;-42
2022/08/21 03:56:23;;;;;;;5.17;2.20;;;17.80;92.50;;;;;;5095255;27;20205;-43
2022/08/21 03:58:50;;;;;;;4.93;2.33;;;17.80;92.60;;;;;;5101768;27;20766;-43
2022/08/21 04:01:17;;;;;;;5.90;2.53;;;17.80;92.90;;;;;;5125497;27;20205;-43
2022/08/21 04:03:45;;;;;;;4.73;2.30;;;17.80;92.60;;;;;;5118717;27;20209;-42
2022/08/21 04:06:12;;;;;;;5.60;2.20;;;17.70;92.60;;;;;;5110056;27;20467;-42
2022/08/21 04:08:44;;;;;;;5.53;2.07;;;17.70;92.80;;;;;;5106730;27;20315;-45
2022/08/21 04:11:12;;;;;;;4.38;2.38;;;17.70;92.70;;;;;;5108797;28;20248;-45
2022/08/21 04:13:41;;;;;;;7.50;2.78;;;17.70;92.70;;;;;;5115690;27;20201;-43
2022/08/21 04:16:15;;;;;;;5.20;2.22;;;17.70;92.70;;;;;;5133146;27;20198;-43
2022/08/21 04:18:45;;;;;;;3.85;1.90;;;17.60;92.70;;;;;;5112943;27;20708;-42
2022/08/21 04:21:15;;;;;;;6.72;2.05;;;17.60;92.70;;;;;;5102236;27;20934;-42
2022/08/21 04:23:45;;;;;;;4.97;2.27;;;17.60;92.70;;;;;;5099874;28;20716;-43
2022/08/21 04:26:17;;;;;;;5.72;2.30;;;17.60;92.70;;;;;;5111253;27;20258;-42
2022/08/21 04:28:47;;;;;;;6.53;2.30;;;17.50;92.70;;;;;;5125737;27;20221;-42
2022/08/21 04:31:17;;;;;;;4.70;2.30;;;17.50;92.80;;;;;;5124142;27;20307;-43
2022/08/21 04:33:46;;;;;;;4.73;2.37;;;17.40;92.80;;;;;;5112431;27;20214;-43
2022/08/21 04:36:16;;;;;;;6.57;2.33;;;17.40;92.70;;;;;;5102275;28;20210;-45
2022/08/21 04:38:49;;;;;;;4.57;1.83;;;17.40;92.80;;;;;;5117045;27;20208;-44
2022/08/21 04:41:16;;;;;;;3.33;2.17;;;17.40;92.80;;;;;;5108158;28;20676;-45
2022/08/21 04:43:57;;;;;;;5.30;2.13;;;17.40;92.90;;;;;;5119499;27;20292;-45
2022/08/21 04:46:24;;;;;;;5.10;2.03;;;17.40;92.90;;;;;;5109811;27;20655;-44
2022/08/21 04:48:54;;;;;;;3.45;1.75;;;17.40;92.90;;;;;;5114407;27;20206;-45
2022/08/21 04:51:30;;;;;;;4.68;2.15;;;17.40;93.00;;;;;;5095486;27;20316;-44
2022/08/21 04:54:06;;;;;;;8.23;2.40;;;17.30;93.10;;;;;;5120639;27;20246;-45
2022/08/21 04:56:44;;;;;;;4.33;1.80;;;17.30;93.00;;;;;;5107955;28;20198;-45
2022/08/21 04:59:22;;;;;;;4.33;2.40;;;17.30;93.10;;;;;;5119147;27;20295;-44
2022/08/21 05:01:50;;;;;;;4.07;2.00;;;17.30;93.00;;;;;;5113133;27;20296;-44
2022/08/21 05:04:24;;;;;;;4.88;1.95;;;17.30;93.10;;;;;;5117178;27;20210;-42
2022/08/21 05:06:59;;;;;;;6.97;1.98;;;17.30;93.20;;;;;;5126050;27;20208;-43
2022/08/21 05:09:30;;;;;;;4.00;2.03;;;17.30;93.10;;;;;;5107962;27;20207;-43
2022/08/21 05:11:57;;;;;;;4.95;2.08;;;17.30;93.20;;;;;;5116649;27;20238;-44
2022/08/21 05:14:27;;;;;;;6.15;2.47;;;17.40;93.10;;;;;;5091418;27;20672;-43
2022/08/21 05:16:54;;;;;;;2.70;1.90;;;17.40;93.10;;;;;;5116319;27;20251;-43
2022/08/21 05:19:24;;;;;;;3.47;1.95;;;17.40;93.20;;;;;;5112511;27;20202;-43
2022/08/21 05:21:52;;;;;;;5.90;2.20;;;17.40;93.20;;;;;;5109064;27;20634;-43
2022/08/21 05:24:26;;;;;;;3.78;1.73;;;17.40;93.20;;;;;;5116354;27;20364;-43
2022/08/21 05:26:56;;;;;;;5.57;1.92;;;17.40;93.10;;;;;;5091751;28;20197;-49
2022/08/21 05:29:26;;;;;;;3.53;1.92;;;17.40;93.20;;;;;;5094566;27;20210;-43
2022/08/21 05:31:55;;;;;;;2.50;1.75;;;17.40;93.20;;;;;;5104442;27;20237;-42
2022/08/21 05:34:23;;;;;;;3.83;2.22;;;17.40;93.40;;;;;;5120266;27;20205;-42
2022/08/21 05:36:53;;;;;;;5.90;1.90;;;17.40;93.30;;;;;;5118219;27;20266;-43
2022/08/21 05:39:23;;;;;;;6.53;2.10;;;17.40;93.30;;;;;;5113404;28;20212;-43
2022/08/21 05:41:52;;;;;;;5.43;2.20;;;17.40;93.40;;;;;;5089805;27;20205;-44
2022/08/21 05:44:22;;;;;;;3.47;1.70;;;17.40;93.40;;;;;;5111356;27;20748;-43
2022/08/21 05:46:52;;;;;;;6.53;2.03;;;17.50;93.50;;;;;;5119610;27;20221;-44
2022/08/21 05:49:22;;;;;;;4.13;1.80;;;17.50;93.40;;;;;;5116238;27;20292;-43
2022/08/21 05:51:53;;;;;;;7.18;2.05;;;17.50;93.50;;;;;;5117627;27;20226;-43
2022/08/21 05:54:23;;;;;;;5.28;2.45;;;17.50;93.50;;;;;;5104343;27;20277;-43
2022/08/21 05:56:51;;;;;;;5.60;1.85;;;17.60;93.50;;;;;;5106972;27;20517;-42
2022/08/21 05:59:21;;;;;;;3.38;1.77;;;17.60;93.60;;;;;;5122985;27;20230;-43
2022/08/21 06:01:53;;;;;;;4.53;1.80;;;17.60;93.50;;;;;;5092035;28;20237;-43
2022/08/21 06:04:20;;;;;;;3.65;1.70;;;17.60;93.50;;;;;;5113879;28;20238;-43
2022/08/21 06:06:51;;;;;;;4.60;2.00;;;17.60;93.50;;;;;;5136718;27;20197;-43
2022/08/21 06:09:19;;;;;;;4.57;2.00;;;17.70;93.60;;;;;;5123888;28;20205;-43
2022/08/21 06:11:50;;;;;;;4.47;1.67;;;17.70;93.60;;;;;;5127025;28;20256;-43
2022/08/21 06:14:20;;;;;;;3.57;1.60;;;17.70;93.60;;;;;;5122095;27;20296;-45
2022/08/21 06:16:47;;;;;;;3.53;2.00;;;17.70;93.60;;;;;;5107350;28;20684;-45
2022/08/21 06:19:15;;;;;;;7.07;2.30;;;17.70;93.70;;;;;;5115449;28;20255;-46
2022/08/21 06:21:42;;;;;;;4.63;1.77;;;17.70;93.70;;;;;;5127323;28;20300;-45
2022/08/21 06:24:12;;;;;;;3.27;1.70;;;17.80;93.80;;;;;;5121172;27;20317;-45
2022/08/21 06:26:39;;;;;;;6.80;2.22;;;17.80;93.90;;;;;;5129199;27;20205;-45
2022/08/21 06:29:10;;;;;;;7.00;2.00;;;17.80;93.80;;;;;;5125264;27;20217;-45
2022/08/21 06:31:39;;;;;;;5.33;2.00;;;17.90;93.90;;;;;;5133748;27;20722;-45
2022/08/21 06:34:12;;;;;;;5.75;2.20;;;18.00;94.00;;;;;;5135476;27;20189;-45
2022/08/21 06:36:39;;;;;;;5.13;1.87;;;18.00;94.00;;;;;;5125039;27;20817;-45
2022/08/21 06:39:07;;;;;;;2.78;1.73;;;18.00;94.00;;;;;;5125776;27;20281;-44
2022/08/21 06:41:52;;;;;;;3.58;1.98;;;18.10;94.10;;;;;;5122602;27;20241;-45
2022/08/21 06:44:24;;;;;;;5.50;2.15;;;18.10;94.00;;;;;;5129323;27;20193;-46
2022/08/21 06:46:54;;;;;;;5.93;1.90;;;18.10;94.10;;;;;;5117737;27;20698;-44
2022/08/21 06:49:21;;;;;;;5.45;2.10;;;18.20;94.20;;;;;;5115891;27;20406;-45
2022/08/21 06:51:51;;;;;;;4.45;2.03;;;18.30;94.20;;;;;;5112092;27;20222;-45
2022/08/21 06:54:20;;;;;;;3.55;1.70;;;18.30;94.60;;;;;;5112181;27;20674;-45
2022/08/21 06:56:47;;;;;;;4.78;1.55;;;18.30;94.20;;;;;;5112988;27;20644;-45
2022/08/21 06:59:17;;;;;;;4.07;1.90;;;18.40;94.30;;;;;;5110204;27;20727;-44
2022/08/21 07:01:47;;;;;;;6.07;1.67;;;18.40;94.40;;;;;;5108535;27;20202;-45
2022/08/21 07:04:15;;;;;;;6.80;1.73;;;18.50;94.50;;;;;;5108261;27;20688;-45
2022/08/21 07:06:42;;;;;;;5.70;1.97;;;18.50;94.50;;;;;;5107647;27;20213;-45
2022/08/21 07:09:11;;;;;;;6.97;1.88;;;18.60;94.50;;;;;;5099116;27;20771;-44
2022/08/21 07:11:41;;;;;;;6.37;1.90;;;18.70;94.70;;;;;;5110407;27;20249;-45
2022/08/21 07:14:14;;;;;;;4.10;1.92;;;18.70;94.60;;;;;;5118198;27;20206;-44
2022/08/21 07:16:52;;;;;;;5.78;1.92;;;18.80;94.80;;;;;;5114392;27;20205;-42
2022/08/21 07:19:21;;;;;;;5.03;1.60;;;18.80;94.80;;;;;;5109967;28;20190;-44
2022/08/21 07:21:48;;;;;;;4.50;2.00;;;18.90;94.90;;;;;;5112104;27;20238;-45
2022/08/21 07:24:18;;;;;;;3.05;1.52;;;18.90;95.00;;;;;;5100969;27;20202;-44
2022/08/21 07:26:45;;;;;;;3.27;1.40;;;19.00;94.90;;;;;;5137459;27;20215;-44
2022/08/21 07:29:13;;;;;;;4.32;1.60;;;19.00;95.00;;;;;;5125447;27;20292;-43
2022/08/21 07:31:40;;;;;;;4.50;1.60;;;19.10;95.10;;;;;;5090229;28;20222;-43
2022/08/21 07:34:10;;;;;;;5.40;1.42;;;19.20;95.10;;;;;;5107310;27;20243;-43
2022/08/21 07:36:39;;;;;;;4.93;1.97;;;19.20;95.10;;;;;;5118774;27;20295;-43
2022/08/21 07:39:07;;;;;;;5.18;1.73;;;19.20;95.20;;;;;;5121036;27;20205;-42
2022/08/21 07:41:35;;;;;;;3.97;1.83;;;19.30;95.30;;;;;;5121692;27;20258;-43
2022/08/21 07:44:02;;;;;;;5.18;1.83;;;19.40;95.30;;;;;;5102222;27;20629;-42
2022/08/21 07:46:32;;;;;;;8.68;1.77;;;19.40;95.40;;;;;;5125051;27;20196;-42
2022/08/21 07:48:59;;;;;;;5.32;1.50;;;19.50;95.40;;;;;;5129713;27;20206;-43
2022/08/21 07:51:33;;;;;;;4.05;1.60;;;19.50;95.50;;;;;;5129247;27;20225;-43
2022/08/21 07:54:05;;;;;;;3.58;1.35;;;19.60;95.50;;;;;;5134165;27;20205;-43
2022/08/21 07:56:33;;;;;;;5.20;1.45;;;19.70;95.60;;;;;;5123512;27;20201;-43
2022/08/21 07:59:02;;;;;;;4.95;1.30;;;19.80;95.70;;;;;;5121340;27;20224;-43
2022/08/21 08:01:30;;;;;;;4.15;1.30;;;19.80;95.70;;;;;;5113640;27;20304;-42
2022/08/21 08:03:59;;;;;;;5.88;1.73;;;19.90;95.70;;;;;;5104855;28;20199;-43
2022/08/21 08:06:32;;;;;;;2.30;1.10;;;19.90;95.80;;;;;;5122789;27;20204;-42
2022/08/21 08:09:02;;;;;;;3.83;1.25;;;20.10;95.90;;;;;;5138699;27;20216;-42
2022/08/21 08:11:30;;;;;;;4.18;1.52;;;20.10;95.90;;;;;;5108641;28;20476;-44
2022/08/21 08:14:00;;;;;;;6.90;1.00;;;20.20;96.00;;;;;;5091898;27;20256;-42
2022/08/21 08:16:28;;;;;;;7.63;1.15;;;20.30;96.10;;;;;;5107821;27;20570;-42
2022/08/21 08:18:57;;;;;;;6.13;1.90;;;20.40;96.10;;;;;;5104240;27;20287;-43
2022/08/21 08:21:25;;;;;;;2.88;1.02;;;20.50;96.10;;;;;;5118783;27;20206;-42
2022/08/21 08:23:55;;;;;;;5.65;1.13;;;20.50;96.00;;;;;;5117436;27;20197;-42
2022/08/21 08:26:22;;;;;;;6.95;1.48;;;20.60;96.00;;;;;;5123136;27;20234;-43
2022/08/21 08:28:52;;;;;;;4.78;1.40;;;20.70;96.00;;;;;;5109787;27;20353;-42
2022/08/21 08:31:19;;;;;;;4.53;1.05;;;20.70;96.00;;;;;;5109657;27;20318;-43
2022/08/21 08:33:48;;;;;;;4.88;1.40;;;20.80;96.00;;;;;;5109361;27;20970;-43
2022/08/21 08:36:19;;;;;;;4.22;1.15;;;20.80;96.10;;;;;;5110568;27;20768;-42
2022/08/21 08:38:47;;;;;;;4.70;1.25;;;20.90;96.10;;;;;;5124167;27;20197;-42
2022/08/21 08:41:21;;;;;;;6.32;1.38;;;21.00;96.10;;;;;;5125095;27;20209;-43
2022/08/21 08:44:01;;;;;;;7.15;1.40;;;21.00;96.10;;;;;;5108997;27;20227;-42
2022/08/21 08:46:35;;;;;;;6.57;1.40;;;21.00;96.10;;;;;;5094770;27;20228;-43
2022/08/21 08:49:32;;;;;;;5.13;1.30;;;21.10;96.20;;;;;;5102854;27;20649;-44
2022/08/21 08:52:05;;;;;;;6.70;1.35;;;21.20;96.20;;;;;;5128210;27;20275;-43
2022/08/21 08:54:49;;;;;;;7.15;1.50;;;21.30;96.20;;;;;;5114053;27;20691;-42
2022/08/21 08:57:19;;;;;;;4.38;1.50;;;21.30;96.30;;;;;;5112498;27;20243;-42
2022/08/21 08:59:53;;;;;;;5.20;1.52;;;21.30;96.30;;;;;;5113692;27;20230;-42
2022/08/21 09:02:23;;;;;;;5.55;1.42;;;21.40;96.40;;;;;;5094257;28;20214;-41
2022/08/21 09:04:54;;;;;;;5.85;1.77;;;21.40;96.40;;;;;;5116011;27;20944;-42
2022/08/21 09:07:55;;;;;;;6.43;1.33;;;21.50;96.40;;;;;;5128859;27;20243;-43
2022/08/21 09:10:42;;;;;;;4.25;1.38;;;21.60;96.40;;;;;;5124114;27;20297;-42
2022/08/21 09:13:29;;;;;;;6.15;1.60;;;21.60;96.40;;;;;;5113209;27;20287;-42
2022/08/21 09:16:21;;;;;;;5.40;1.42;;;21.70;96.40;;;;;;5108349;27;20190;-43
2022/08/21 09:19:27;;;;;;;2.75;1.00;;;21.70;96.40;;;;;;5110972;27;20216;-42
2022/08/21 09:22:07;;;;;;;5.20;1.52;;;21.70;96.40;;;;;;5124104;27;20201;-42
2022/08/21 09:25:00;;;;;;;4.88;1.20;;;21.80;96.40;;;;;;5094598;27;20216;-43
2022/08/21 09:27:29;;;;;;;5.05;1.23;;;21.80;96.30;;;;;;5079197;27;20980;-48
2022/08/21 09:29:57;;;;;;;4.40;1.27;;;21.80;96.40;;;;;;5120271;27;20320;-43
2022/08/21 09:32:28;;;;;;;6.38;1.30;;;21.90;96.40;;;;;;5109063;28;20257;-43
2022/08/21 09:35:21;;;;;;;3.83;1.27;;;21.90;96.50;;;;;;5110913;27;20984;-42
2022/08/21 09:37:51;;;;;;;5.47;1.27;;;22.00;96.30;;;;;;5119694;27;20193;-42
2022/08/21 09:40:36;;;;;;;3.33;1.33;;;22.10;96.20;;;;;;5112355;27;20297;-42
2022/08/21 09:43:20;;;;;;;7.28;1.88;;;22.20;96.10;;;;;;5124597;28;20204;-42
2022/08/21 09:46:05;;;;;;;3.80;1.10;;;22.20;96.10;;;;;;5135770;27;20292;-42
2022/08/21 09:48:41;;;;;;;4.78;1.50;;;22.20;96.30;;;;;;5135738;27;20270;-43
2022/08/21 09:51:18;;;;;;;5.45;1.58;;;22.30;95.90;;;;;;5113869;28;20201;-42
2022/08/21 09:53:50;;;;;;;6.57;1.52;;;22.30;95.90;;;;;;5122274;27;20213;-42
2022/08/21 09:59:37;;;;;;;7.00;1.55;;;22.40;96.20;;;;;;5115426;27;20320;-43
2022/08/21 10:02:27;;;;;;;3.92;1.20;;;22.40;96.30;;;;;;5121185;27;20275;-42
2022/08/21 10:05:15;;;;;;;10.07;1.90;;;22.50;96.30;;;;;;5132145;27;20205;-43
2022/08/21 10:07:44;;;;;;;4.93;1.10;;;22.60;96.20;;;;;;5110297;27;20556;-43
2022/08/21 10:10:28;;;;;;;4.03;1.50;;;22.70;96.40;;;;;;5134482;27;20307;-43
2022/08/21 10:13:08;;;;;;;6.03;1.75;;;22.90;96.40;;;;;;5114894;27;20216;-46
2022/08/21 10:16:06;;;;;;;3.97;1.40;;;22.90;96.50;;;;;;5127645;27;20927;-42
2022/08/21 10:18:54;;;;;;;4.43;1.20;;;23.00;96.40;;;;;;5130767;27;20251;-43
2022/08/21 10:21:39;;;;;;;5.95;1.48;;;23.10;96.60;;;;;;5113225;27;20656;-43
2022/08/21 10:24:24;;;;;;;7.35;1.20;;;23.20;95.70;;;;;;5125715;27;20209;-46
2022/08/21 10:27:37;;;;;;;6.53;1.63;;;23.30;95.80;;;;;;5127708;27;20193;-43
2022/08/21 10:30:46;;;;;;;3.92;2.08;;;23.30;96.00;;;;;;5117438;27;20216;-43
2022/08/21 10:33:18;;;;;;;3.88;1.30;;;23.30;96.20;;;;;;5091408;27;20241;-44
2022/08/21 10:36:15;;;;;;;5.55;1.63;;;23.40;96.20;;;;;;5117473;27;20238;-45
2022/08/21 10:39:16;;;;;;;5.45;1.17;;;23.40;96.10;;;;;;5123918;27;20237;-45
2022/08/21 10:42:12;;;;;;;8.48;1.70;;;23.50;96.00;;;;;;5112839;27;20707;-46
2022/08/21 10:45:05;;;;;;;4.50;1.50;;;23.50;95.80;;;;;;5115854;27;20202;-46
2022/08/21 10:47:48;;;;;;;6.13;1.50;;;23.50;95.60;;;;;;5112501;28;20727;-45
2022/08/21 10:50:24;;;;;;;6.90;1.70;;;23.50;95.50;;;;;;5119360;27;20212;-47
2022/08/21 10:53:09;;;;;;;8.13;1.50;;;23.50;95.60;;;;;;5133941;27;20221;-46
2022/08/21 10:55:55;;;;;;;6.47;1.50;;;23.50;95.50;;;;;;5127109;27;20217;-46
2022/08/21 10:58:37;;;;;;;5.65;1.60;;;23.50;95.30;;;;;;5093641;27;20596;-46
2022/08/21 11:01:17;;;;;;;7.00;1.83;;;23.60;95.30;;;;;;5130118;27;20262;-46
2022/08/21 11:04:11;;;;;;;5.38;1.25;;;23.60;95.40;;;;;;5106941;27;20258;-45
2022/08/21 11:06:45;;;;;;;5.25;1.50;;;23.60;95.40;;;;;;5114918;27;20203;-46
2022/08/21 11:09:15;;;;;;;4.88;1.42;;;23.60;95.40;;;;;;5127587;27;20217;-41
2022/08/21 11:11:46;;;;;;;4.90;1.98;;;23.60;95.50;;;;;;5118170;27;20275;-42
2022/08/21 11:14:56;;;;;;;6.65;1.60;;;23.60;95.60;;;;;;5131476;27;20300;-42
2022/08/21 11:17:48;;;;;;;5.30;1.40;;;23.70;95.50;;;;;;5128954;27;20198;-42
2022/08/21 11:20:44;;;;;;;6.60;1.60;;;23.60;95.40;;;;;;5123772;27;20217;-42
2022/08/21 11:23:24;;;;;;;6.90;1.88;;;23.70;95.10;;;;;;5083464;27;20549;-42
2022/08/21 11:26:07;;;;;;;3.50;1.50;;;23.70;94.60;;;;;;5131728;27;20201;-42
2022/08/21 11:28:54;;;;;;;7.18;1.92;;;23.70;95.20;;;;;;5109507;27;20204;-42
2022/08/21 11:31:47;;;;;;;7.82;2.05;;;23.80;95.10;;;;;;5131224;27;20602;-42
2022/08/21 11:34:33;;;;;;;4.95;1.60;;;23.90;94.60;;;;;;5110513;28;20199;-42
2022/08/21 11:37:15;;;;;;;6.47;1.80;;;23.90;95.10;;;;;;5104446;27;20210;-42
2022/08/21 11:40:17;;;;;;;6.97;1.92;;;23.90;94.90;;;;;;5126738;27;20198;-42
2022/08/21 11:43:11;;;;;;;5.90;1.83;;;24.00;94.90;;;;;;5113544;27;20197;-41
2022/08/21 11:45:47;;;;;;;8.27;1.85;;;24.00;94.60;;;;;;5081718;28;20206;-42
2022/08/21 11:48:47;;;;;;;9.68;1.80;;;24.10;94.60;;;;;;5115736;27;20266;-42
2022/08/21 11:51:22;;;;;;;5.90;1.90;;;24.20;94.60;;;;;;5131216;27;20678;-41
2022/08/21 11:54:08;;;;;;;7.43;1.92;;;24.20;94.80;;;;;;5130060;27;20204;-41
2022/08/21 11:56:41;;;;;;;9.32;1.90;;;24.20;94.60;;;;;;5109385;27;20193;-42
2022/08/21 11:59:20;;;;;;;5.78;1.75;;;24.20;94.40;;;;;;5124376;27;20236;-42
2022/08/21 12:01:50;;;;;;;6.35;1.90;;;24.20;93.30;;;;;;5129819;27;20217;-46
2022/08/21 12:04:26;;;;;;;5.97;1.60;;;24.30;94.10;;;;;;5099448;27;20296;-46
2022/08/21 12:06:57;;;;;;;8.10;1.80;;;24.30;93.80;;;;;;5110533;27;20198;-47
2022/08/21 12:09:24;;;;;;;7.80;1.80;;;24.30;93.90;;;;;;5097658;27;20201;-47
2022/08/21 12:12:11;;;;;;;5.22;1.60;;;24.30;93.20;;;;;;5119390;27;20836;-47
2022/08/21 12:14:45;;;;;;;7.65;1.95;;;24.30;94.00;;;;;;5102487;27;20214;-46
2022/08/21 12:17:23;;;;;;;9.57;1.77;;;24.30;93.80;;;;;;5095423;27;20189;-47
2022/08/21 12:20:14;;;;;;;5.63;2.30;;;24.30;94.30;;;;;;5099787;27;20630;-47
2022/08/21 12:22:52;;;;;;;4.18;1.40;;;24.30;94.20;;;;;;5097230;27;20241;-47
2022/08/21 12:25:35;;;;;;;3.95;1.42;;;24.40;94.10;;;;;;5122688;27;20209;-44
2022/08/21 12:28:22;;;;;;;7.63;1.98;;;24.40;94.40;;;;;;5118466;27;20190;-46
2022/08/21 12:30:50;;;;;;;5.80;1.42;;;24.40;94.70;;;;;;5114671;27;20332;-45
2022/08/21 12:33:23;;;;;;;5.53;2.00;;;24.50;94.80;;;;;;5112570;27;20225;-44
2022/08/21 12:36:01;;;;;;;6.35;1.70;;;24.50;94.20;;;;;;5104389;27;20205;-45
2022/08/21 12:38:33;;;;;;;5.63;1.80;;;24.60;94.60;;;;;;5124096;27;20181;-46
2022/08/21 12:41:17;;;;;;;4.28;1.60;;;24.70;94.30;;;;;;5125709;27;20264;-45
2022/08/21 12:43:59;;;;;;;7.25;1.65;;;24.80;94.80;;;;;;5093864;27;20236;-43
2022/08/21 12:46:50;;;;;;;3.90;1.25;;;24.90;94.90;;;;;;5113948;27;20843;-44
2022/08/21 12:49:56;;;;;;;4.22;1.38;;;24.90;95.10;;;;;;5103388;27;22015;-45
2022/08/21 12:53:02;;;;;;;5.32;1.50;;;25.00;93.80;;;;;;5086922;27;20213;-47
2022/08/21 12:55:31;;;;;;;6.13;1.92;;;25.00;94.80;;;;;;5111547;27;20293;-44
2022/08/21 12:57:59;;;;;;;4.00;1.52;;;25.10;95.00;;;;;;5121964;27;20221;-44
2022/08/21 13:00:28;;;;;;;7.55;1.92;;;25.10;94.80;;;;;;5117412;27;20260;-44
2022/08/21 13:02:59;;;;;;;6.20;1.65;;;25.20;94.90;;;;;;5115750;27;20300;-42
2022/08/21 13:05:31;;;;;;;4.75;1.52;;;25.30;94.20;;;;;;5109753;27;20216;-44
2022/08/21 13:08:07;;;;;;;6.80;2.00;;;25.30;94.60;;;;;;5116851;27;20278;-41
2022/08/21 13:10:39;;;;;;;5.32;1.65;;;25.30;94.50;;;;;;5121577;27;20197;-42
2022/08/21 13:13:23;;;;;;;7.03;1.65;;;25.40;93.20;;;;;;5124987;27;20240;-41
2022/08/21 13:16:02;;;;;;;6.72;1.60;;;25.40;93.30;;;;;;5119503;27;20190;-41
2022/08/21 13:18:34;;;;;;;2.63;1.40;;;25.40;93.20;;;;;;5118939;27;20281;-41
2022/08/21 13:21:11;;;;;;;5.18;1.50;;;25.30;93.90;;;;;;5122043;27;20221;-41
2022/08/21 13:23:43;;;;;;;5.25;1.48;;;25.30;92.60;;;;;;5109749;27;20522;-40
2022/08/21 13:26:18;;;;;;;6.57;1.23;;;25.30;93.70;;;;;;5113897;27;20568;-42